createdAt,value
2023-01-04T00:01:24.227Z,48.83
2023-01-04T00:03:53.608Z,47.93
2023-01-04T00:06:22.116Z,52.13
2023-01-04T00:08:50.832Z,52.83
2023-01-04T00:11:20.464Z,50.57
2023-01-04T00:13:50.016Z,51.07
2023-01-04T00:16:21.784Z,53.97
2023-01-04T00:18:50.804Z,52.13
2023-01-04T00:21:20.424Z,52.80
2023-01-04T00:23:50.778Z,53.73
2023-01-04T00:26:21.067Z,52.63
2023-01-04T00:28:54.135Z,53.50
2023-01-04T00:31:25.438Z,53.30
2023-01-04T00:33:55.490Z,55.20
2023-01-04T00:36:24.459Z,52.50
2023-01-04T00:39:07.986Z,52.90
2023-01-04T00:41:58.275Z,54.73
2023-01-04T00:44:26.158Z,56.80
2023-01-04T00:46:56.117Z,59.40
2023-01-04T00:49:24.734Z,60.77
2023-01-04T00:51:53.083Z,58.20
2023-01-04T00:54:21.594Z,61.30
2023-01-04T00:56:50.084Z,61.83
2023-01-04T00:59:20.900Z,65.70
2023-01-04T01:01:49.183Z,58.13
2023-01-04T01:04:20.503Z,60.87
2023-01-04T01:06:49.887Z,61.00
2023-01-04T01:09:18.224Z,61.20
2023-01-04T01:11:46.566Z,56.27
2023-01-04T01:14:18.238Z,56.10
2023-01-04T01:16:56.388Z,58.83
2023-01-04T01:19:27.541Z,61.50
2023-01-04T01:21:57.491Z,60.87
2023-01-04T01:24:25.743Z,61.60
2023-01-04T01:26:54.800Z,59.70
2023-01-04T01:29:23.059Z,60.90
2023-01-04T01:31:51.292Z,62.37
2023-01-04T01:34:19.609Z,65.17
2023-01-04T01:36:49.200Z,64.17
2023-01-04T01:39:17.371Z,62.20
2023-01-04T01:41:45.574Z,60.60
2023-01-04T01:44:51.284Z,64.50
2023-01-04T01:47:22.796Z,65.80
2023-01-04T01:49:54.443Z,61.63
2023-01-04T01:52:29.296Z,66.73
2023-01-04T01:55:00.893Z,71.60
2023-01-04T01:57:32.738Z,69.23
2023-01-04T02:00:03.743Z,62.57
2023-01-04T02:02:32.223Z,60.00
2023-01-04T02:05:02.695Z,63.57
2023-01-04T02:07:32.550Z,61.97
2023-01-04T02:10:00.683Z,60.90
2023-01-04T02:12:28.922Z,59.33
2023-01-04T02:14:57.329Z,63.00
2023-01-04T02:17:37.517Z,62.83
2023-01-04T02:20:26.748Z,60.13
2023-01-04T02:23:29.965Z,66.43
2023-01-04T02:26:33.433Z,66.90
2023-01-04T02:29:32.415Z,67.30
2023-01-04T02:32:04.871Z,67.20
2023-01-04T02:34:42.606Z,68.73
2023-01-04T02:37:19.880Z,67.53
2023-01-04T02:39:56.273Z,67.70
2023-01-04T02:42:47.610Z,65.27
2023-01-04T02:45:20.028Z,61.47
2023-01-04T02:48:07.560Z,67.90
2023-01-04T02:50:42.032Z,61.70
2023-01-04T02:53:13.280Z,63.97
2023-01-04T02:55:49.808Z,65.00
2023-01-04T02:58:34.537Z,64.90
2023-01-04T03:01:29.903Z,60.23
2023-01-04T03:04:27.219Z,60.33
2023-01-04T03:07:00.977Z,57.10
2023-01-04T03:09:34.394Z,61.20
2023-01-04T03:12:24.375Z,61.47
2023-01-04T03:15:00.413Z,64.17
2023-01-04T03:17:33.321Z,62.03
2023-01-04T03:20:03.544Z,62.07
2023-01-04T03:22:55.357Z,63.13
2023-01-04T03:25:44.687Z,63.97
2023-01-04T03:28:32.981Z,64.43
2023-01-04T03:31:25.098Z,64.87
2023-01-04T03:34:11.033Z,64.30
2023-01-04T03:36:55.875Z,62.90
2023-01-04T03:39:53.626Z,61.60
2023-01-04T03:42:46.032Z,61.87
2023-01-04T03:45:36.607Z,63.43
2023-01-04T03:48:33.314Z,66.63
2023-01-04T03:51:22.675Z,65.50
2023-01-04T03:53:56.895Z,61.77
2023-01-04T03:56:27.683Z,62.90
2023-01-04T03:58:56.157Z,65.17
2023-01-04T04:01:26.819Z,62.50
2023-01-04T04:04:13.188Z,61.70
2023-01-04T04:06:59.029Z,61.87
2023-01-04T04:09:28.580Z,63.27
2023-01-04T04:11:56.617Z,63.60
2023-01-04T04:14:24.745Z,64.17
2023-01-04T04:16:53.020Z,64.50
2023-01-04T04:19:21.995Z,64.57
2023-01-04T04:21:50.093Z,66.20
2023-01-04T04:24:20.666Z,65.17
2023-01-04T04:26:50.117Z,64.83
2023-01-04T04:29:18.903Z,67.10
2023-01-04T04:31:46.958Z,65.70
2023-01-04T04:34:15.214Z,66.57
2023-01-04T04:36:43.271Z,63.33
2023-01-04T04:39:12.345Z,64.63
2023-01-04T04:41:39.777Z,65.70
2023-01-04T04:44:11.492Z,63.30
2023-01-04T04:46:40.174Z,62.47
2023-01-04T04:49:09.328Z,64.37
2023-01-04T04:51:38.124Z,62.13
2023-01-04T04:54:06.914Z,60.17
2023-01-04T04:56:36.697Z,62.33
2023-01-04T04:59:05.113Z,61.20
2023-01-04T05:01:34.878Z,62.10
2023-01-04T05:04:03.023Z,58.63
2023-01-04T05:06:31.117Z,63.33
2023-01-04T05:08:59.262Z,61.13
2023-01-04T05:11:41.412Z,62.67
2023-01-04T05:14:09.886Z,63.93
2023-01-04T05:16:39.325Z,70.50
2023-01-04T05:19:07.423Z,69.60
2023-01-04T05:21:35.558Z,64.10
2023-01-04T05:24:03.778Z,62.60
2023-01-04T05:26:31.654Z,64.80
2023-01-04T05:28:59.748Z,65.33
2023-01-04T05:31:26.961Z,62.93
2023-01-04T05:33:56.375Z,64.43
2023-01-04T05:36:25.497Z,62.77
2023-01-04T05:38:53.480Z,68.70
2023-01-04T05:41:39.095Z,66.83
2023-01-04T05:44:07.330Z,62.77
2023-01-04T05:46:35.578Z,62.83
2023-01-04T05:49:05.055Z,62.50
2023-01-04T05:51:33.100Z,65.07
2023-01-04T05:54:01.099Z,63.50
2023-01-04T05:56:29.148Z,67.60
2023-01-04T05:58:57.167Z,65.87
2023-01-04T06:01:25.300Z,64.43
2023-01-04T06:03:53.623Z,65.70
2023-01-04T06:06:23.021Z,66.87
2023-01-04T06:08:51.099Z,67.60
2023-01-04T06:11:23.986Z,66.00
2023-01-04T06:13:53.667Z,65.77
2023-01-04T06:16:21.799Z,66.30
2023-01-04T06:18:49.926Z,67.30
2023-01-04T06:21:18.034Z,67.27
2023-01-04T06:23:47.454Z,66.53
2023-01-04T06:26:15.319Z,67.67
2023-01-04T06:28:43.341Z,64.60
2023-01-04T06:31:12.433Z,66.00
2023-01-04T06:33:40.962Z,67.70
2023-01-04T06:36:20.324Z,65.80
2023-01-04T06:38:50.349Z,64.27
2023-01-04T06:41:18.484Z,66.10
2023-01-04T06:43:46.644Z,64.87
2023-01-04T06:46:14.710Z,64.20
2023-01-04T06:48:43.107Z,61.10
2023-01-04T06:51:11.461Z,61.70
2023-01-04T06:53:39.578Z,62.60
2023-01-04T06:56:10.066Z,63.13
2023-01-04T06:58:38.462Z,57.83
2023-01-04T07:01:07.809Z,56.83
2023-01-04T07:03:36.037Z,60.50
2023-01-04T07:06:06.241Z,58.97
2023-01-04T07:08:35.066Z,58.57
2023-01-04T07:11:03.228Z,59.10
2023-01-04T07:13:32.643Z,59.70
2023-01-04T07:16:00.793Z,58.47
2023-01-04T07:18:28.819Z,55.57
2023-01-04T07:20:56.919Z,54.53
2023-01-04T07:23:25.024Z,53.83
2023-01-04T07:25:52.888Z,52.57
2023-01-04T07:28:34.924Z,54.00
2023-01-04T07:31:07.705Z,51.00
2023-01-04T07:33:35.791Z,50.33
2023-01-04T07:36:06.401Z,49.43
2023-01-04T07:38:34.810Z,52.40
2023-01-04T07:41:02.972Z,55.07
2023-01-04T07:43:31.145Z,53.37
2023-01-04T07:45:59.212Z,54.77
2023-01-04T07:48:29.670Z,53.93
2023-01-04T07:50:57.937Z,51.90
2023-01-04T07:53:26.330Z,53.47
2023-01-04T07:55:57.998Z,54.07
2023-01-04T07:58:26.198Z,52.43
2023-01-04T08:00:54.234Z,51.37
2023-01-04T08:03:22.309Z,55.50
2023-01-04T08:05:51.911Z,54.80
2023-01-04T08:08:19.933Z,57.00
2023-01-04T08:10:47.935Z,55.60
2023-01-04T08:13:16.055Z,55.87
2023-01-04T08:15:44.110Z,56.47
2023-01-04T08:18:12.275Z,55.80
2023-01-04T08:20:40.312Z,55.60
2023-01-04T08:23:09.650Z,56.60
2023-01-04T08:25:37.721Z,56.10
2023-01-04T08:28:06.056Z,56.63
2023-01-04T08:30:34.076Z,60.83
2023-01-04T08:33:02.820Z,57.20
2023-01-04T08:35:30.905Z,57.67
2023-01-04T08:38:20.112Z,58.17
2023-01-04T08:40:58.757Z,63.77
2023-01-04T08:43:29.882Z,61.70
2023-01-04T08:45:57.985Z,60.20
2023-01-04T08:48:26.086Z,60.33
2023-01-04T08:50:54.291Z,62.27
2023-01-04T08:53:22.357Z,65.13
2023-01-04T08:55:52.771Z,62.30
2023-01-04T08:58:21.059Z,62.13
2023-01-04T09:00:49.185Z,63.37
2023-01-04T09:03:17.536Z,62.37
2023-01-04T09:05:46.329Z,64.93
2023-01-04T09:08:14.397Z,64.33
2023-01-04T09:10:42.436Z,59.73
2023-01-04T09:13:11.874Z,61.57
2023-01-04T09:15:39.965Z,60.80
2023-01-04T09:18:31.449Z,64.53
2023-01-04T09:21:01.376Z,62.00
2023-01-04T09:23:30.464Z,61.67
2023-01-04T09:25:58.356Z,62.53
2023-01-04T09:28:27.935Z,61.70
2023-01-04T09:30:56.231Z,60.23
2023-01-04T09:33:41.394Z,60.00
2023-01-04T09:36:15.243Z,61.67
2023-01-04T09:38:43.372Z,61.33
2023-01-04T09:41:21.550Z,60.93
2023-01-04T09:43:52.812Z,63.37
2023-01-04T09:46:29.296Z,59.50
2023-01-04T09:49:06.776Z,64.27
2023-01-04T09:51:38.312Z,61.93
2023-01-04T09:54:13.461Z,66.80
2023-01-04T09:56:50.188Z,63.10
2023-01-04T09:59:24.695Z,62.87
2023-01-04T10:01:57.355Z,59.17
2023-01-04T10:04:30.026Z,63.63
2023-01-04T10:07:04.731Z,59.40
2023-01-04T10:09:33.417Z,63.30
2023-01-04T10:12:22.005Z,65.33
2023-01-04T10:15:19.106Z,60.40
2023-01-04T10:21:32.719Z,60.20
2023-01-04T10:24:26.122Z,61.90
2023-01-04T10:27:01.243Z,60.30
2023-01-04T10:29:46.061Z,66.40
2023-01-04T10:32:20.569Z,63.73
2023-01-04T10:34:49.927Z,63.57
2023-01-04T10:37:21.837Z,66.70
2023-01-04T10:39:55.170Z,66.33
2023-01-04T10:42:33.354Z,70.50
2023-01-04T10:45:17.609Z,67.57
2023-01-04T10:48:00.033Z,67.20
2023-01-04T10:50:34.972Z,68.20
2023-01-04T10:53:06.264Z,68.97
2023-01-04T10:55:41.868Z,69.47
2023-01-04T10:58:37.503Z,68.53
2023-01-04T11:01:11.897Z,66.50
2023-01-04T11:03:47.947Z,67.10
2023-01-04T11:06:21.075Z,65.20
2023-01-04T11:08:53.310Z,67.33
2023-01-04T11:11:26.493Z,66.90
2023-01-04T11:13:54.726Z,69.30
2023-01-04T11:16:22.981Z,64.57
2023-01-04T11:18:53.307Z,64.10
2023-01-04T11:21:27.629Z,63.23
2023-01-04T11:24:08.252Z,64.20
2023-01-04T11:26:49.541Z,65.87
2023-01-04T11:29:30.744Z,63.00
2023-01-04T11:32:02.346Z,67.03
2023-01-04T11:34:49.796Z,60.47
2023-01-04T11:37:29.490Z,60.73
2023-01-04T11:40:22.923Z,60.53
2023-01-04T11:42:53.086Z,61.63
2023-01-04T11:45:24.778Z,63.20
2023-01-04T11:47:55.188Z,64.90
2023-01-04T11:50:41.089Z,60.67
2023-01-04T11:53:30.766Z,60.37
2023-01-04T11:56:16.484Z,60.90
2023-01-04T11:58:46.352Z,58.80
2023-01-04T12:01:23.235Z,58.83
2023-01-04T12:03:52.033Z,61.67
2023-01-04T12:06:27.603Z,62.87
2023-01-04T12:08:55.733Z,65.87
2023-01-04T12:11:29.816Z,62.47
2023-01-04T12:13:59.593Z,59.57
2023-01-04T12:16:44.486Z,59.73
2023-01-04T12:19:16.221Z,58.50
2023-01-04T12:21:49.327Z,59.00
2023-01-04T12:24:20.623Z,56.47
2023-01-04T12:26:50.299Z,51.00
2023-01-04T12:29:43.062Z,50.77
2023-01-04T12:32:45.790Z,47.40
2023-01-04T12:36:06.829Z,50.10
2023-01-04T12:39:02.884Z,49.17
2023-01-04T12:42:18.866Z,49.47
2023-01-04T12:45:19.300Z,47.33
2023-01-04T12:48:06.727Z,46.43
2023-01-04T12:51:31.173Z,47.60
2023-01-04T12:54:04.726Z,50.90
2023-01-04T12:57:10.469Z,46.80
2023-01-04T12:59:39.660Z,50.17
2023-01-04T13:02:20.407Z,49.80
2023-01-04T13:04:49.867Z,48.30
2023-01-04T13:07:23.923Z,46.33
2023-01-04T13:09:57.622Z,46.10
2023-01-04T13:12:56.787Z,47.20
2023-01-04T13:15:40.160Z,44.50
2023-01-04T13:18:35.807Z,43.43
2023-01-04T13:21:05.640Z,43.20
2023-01-04T13:23:34.051Z,42.17
2023-01-04T13:26:45.981Z,41.93
2023-01-04T13:29:18.362Z,42.47
2023-01-04T13:31:53.818Z,42.73
2023-01-04T13:34:25.513Z,41.53
2023-01-04T13:37:01.717Z,40.33
2023-01-04T13:39:30.476Z,40.20
2023-01-04T13:41:59.327Z,39.30
2023-01-04T13:47:44.895Z,65.60
2023-01-04T13:50:28.072Z,39.37
2023-01-04T13:53:06.093Z,38.23
2023-01-04T13:55:35.879Z,36.70
2023-01-04T13:58:06.125Z,36.70
2023-01-04T14:00:42.670Z,36.60
2023-01-04T14:03:27.089Z,37.13
2023-01-04T14:06:01.372Z,37.20
2023-01-04T14:08:35.586Z,36.17
2023-01-04T14:11:36.549Z,38.40
2023-01-04T14:14:05.529Z,36.70
2023-01-04T14:16:34.895Z,38.20
2023-01-04T14:19:36.264Z,37.70
2023-01-04T14:22:49.460Z,35.40
2023-01-04T14:25:44.876Z,36.80
2023-01-04T14:28:40.316Z,37.80
2023-01-04T14:31:40.405Z,36.70
2023-01-04T14:34:14.587Z,38.10
2023-01-04T14:36:43.827Z,36.93
2023-01-04T14:39:36.113Z,38.77
2023-01-04T14:42:05.130Z,37.90
2023-01-04T14:44:36.018Z,37.73
2023-01-04T14:47:07.322Z,37.60
2023-01-04T14:49:35.624Z,34.40
2023-01-04T14:52:10.518Z,35.47
2023-01-04T14:54:39.698Z,36.00
2023-01-04T14:57:07.728Z,36.40
2023-01-04T14:59:36.080Z,34.40
2023-01-04T15:02:05.588Z,33.07
2023-01-04T15:04:33.705Z,32.13
2023-01-04T15:07:02.482Z,29.57
2023-01-04T15:09:31.322Z,32.07
2023-01-04T15:11:59.775Z,32.90
2023-01-04T15:14:27.925Z,30.57
2023-01-04T15:16:56.027Z,30.80
2023-01-04T15:19:25.490Z,31.43
2023-01-04T15:21:53.647Z,30.73
2023-01-04T15:24:21.832Z,31.10
2023-01-04T15:26:49.869Z,33.17
2023-01-04T15:29:18.091Z,33.83
2023-01-04T15:31:46.240Z,34.17
2023-01-04T15:34:17.345Z,35.20
2023-01-04T15:36:46.737Z,34.57
2023-01-04T15:39:15.532Z,37.10
2023-01-04T15:42:01.252Z,38.23
2023-01-04T15:44:29.583Z,36.10
2023-01-04T15:46:59.459Z,37.47
2023-01-04T15:49:29.840Z,36.67
2023-01-04T15:51:59.322Z,44.20
2023-01-04T15:54:27.772Z,37.60
2023-01-04T15:56:56.178Z,36.77
2023-01-04T15:59:24.545Z,37.80
2023-01-04T16:01:52.720Z,37.47
2023-01-04T16:04:21.080Z,35.57
2023-01-04T16:06:49.234Z,37.00
2023-01-04T16:09:18.608Z,35.37
2023-01-04T16:12:00.646Z,34.37
2023-01-04T16:14:28.745Z,34.57
2023-01-04T16:16:57.055Z,33.13
2023-01-04T16:19:25.318Z,37.50
2023-01-04T16:21:53.386Z,34.63
2023-01-04T16:25:00.089Z,38.60
2023-01-04T16:27:11.210Z,38.07
2023-01-04T16:29:39.297Z,34.03
2023-01-04T16:32:07.885Z,36.03
2023-01-04T16:34:36.296Z,33.50
2023-01-04T16:37:04.510Z,34.13
2023-01-04T16:40:05.321Z,35.03
2023-01-04T16:42:22.001Z,36.77
2023-01-04T16:44:50.012Z,34.87
2023-01-04T16:47:18.091Z,33.53
2023-01-04T16:49:46.209Z,33.20
2023-01-04T16:52:14.302Z,35.63
2023-01-04T16:54:43.672Z,34.30
2023-01-04T16:57:11.707Z,33.97
2023-01-04T16:59:39.687Z,31.73
2023-01-04T17:02:07.847Z,36.63
2023-01-04T17:04:35.978Z,32.93
2023-01-04T17:07:04.902Z,35.33
2023-01-04T17:09:33.057Z,33.80
2023-01-04T17:12:45.056Z,33.40
2023-01-04T17:15:07.986Z,31.43
2023-01-04T17:17:39.022Z,33.20
2023-01-04T17:20:08.367Z,29.70
2023-01-04T17:22:36.491Z,31.40
2023-01-04T17:25:04.874Z,30.53
2023-01-04T17:27:36.252Z,29.07
2023-01-04T17:30:04.927Z,30.97
2023-01-04T17:32:32.943Z,29.30
2023-01-04T17:35:00.966Z,31.70
2023-01-04T17:37:28.982Z,31.47
2023-01-04T17:39:56.992Z,29.93
2023-01-04T17:42:25.043Z,32.37
2023-01-04T17:44:54.527Z,30.87
2023-01-04T17:47:22.541Z,28.63
2023-01-04T17:49:50.608Z,29.37
2023-01-04T17:52:25.865Z,30.33
2023-01-04T17:54:57.154Z,29.23
2023-01-04T17:57:25.117Z,30.53
2023-01-04T17:59:54.488Z,29.80
2023-01-04T18:02:22.556Z,28.30
2023-01-04T18:04:50.684Z,29.87
2023-01-04T18:07:19.972Z,28.83
2023-01-04T18:09:47.981Z,30.13
2023-01-04T18:12:16.925Z,32.03
2023-01-04T18:14:45.059Z,28.33
2023-01-04T18:17:14.828Z,29.90
2023-01-04T18:19:46.234Z,30.53
2023-01-04T18:22:14.608Z,33.70
2023-01-04T18:24:42.657Z,30.17
2023-01-04T18:27:28.422Z,33.53
2023-01-04T18:29:57.126Z,32.83
2023-01-04T18:32:27.795Z,35.50
2023-01-04T18:34:55.891Z,32.53
2023-01-04T18:37:23.919Z,37.87
2023-01-04T18:39:52.069Z,35.57
2023-01-04T18:42:20.333Z,34.83
2023-01-04T18:44:49.664Z,35.90
2023-01-04T18:47:20.051Z,39.33
2023-01-04T18:49:49.920Z,38.60
2023-01-04T18:52:18.839Z,40.13
2023-01-04T18:54:48.404Z,36.93
2023-01-04T18:57:16.622Z,37.40
2023-01-04T18:59:46.182Z,43.93
2023-01-04T19:02:23.420Z,38.37
2023-01-04T19:04:53.073Z,38.23
2023-01-04T19:07:21.344Z,38.30
2023-01-04T19:09:49.423Z,39.23
2023-01-04T19:12:19.133Z,35.60
2023-01-04T19:14:49.916Z,36.30
2023-01-04T19:17:21.543Z,35.63
2023-01-04T19:19:50.094Z,35.30
2023-01-04T19:22:23.136Z,33.37
2023-01-04T19:24:51.143Z,34.50
2023-01-04T19:27:20.633Z,33.83
2023-01-04T19:29:48.763Z,35.50
2023-01-04T19:32:19.337Z,32.43
2023-01-04T19:34:47.529Z,34.90
2023-01-04T19:37:15.576Z,36.73
2023-01-04T19:39:44.904Z,45.33
2023-01-04T19:42:12.876Z,33.87
2023-01-04T19:44:40.945Z,31.63
2023-01-04T19:47:09.050Z,32.27
2023-01-04T19:49:37.071Z,32.70
2023-01-04T19:52:06.014Z,31.30
2023-01-04T19:54:34.302Z,31.17
2023-01-04T19:57:04.268Z,33.43
2023-01-04T19:59:32.465Z,29.03
2023-01-04T20:02:00.663Z,30.63
2023-01-04T20:04:28.832Z,28.70
2023-01-04T20:06:56.829Z,26.83
2023-01-04T20:09:27.675Z,47.07
2023-01-04T20:11:56.044Z,28.20
2023-01-04T20:14:26.857Z,28.37
2023-01-04T20:16:55.279Z,27.60
2023-01-04T20:19:23.484Z,27.77
2023-01-04T20:21:51.635Z,25.77
2023-01-04T20:24:19.774Z,26.63
2023-01-04T20:26:47.881Z,28.67
2023-01-04T20:29:15.888Z,27.40
2023-01-04T20:31:45.926Z,27.53
2023-01-04T20:34:14.806Z,32.97
2023-01-04T20:36:43.251Z,26.63
2023-01-04T20:39:11.435Z,24.67
2023-01-04T20:42:00.135Z,25.73
2023-01-04T20:44:27.324Z,25.00
2023-01-04T20:46:57.718Z,25.40
2023-01-04T20:49:25.789Z,28.20
2023-01-04T20:51:53.826Z,25.10
2023-01-04T20:54:21.899Z,26.00
2023-01-04T20:56:49.982Z,26.57
2023-01-04T20:59:18.080Z,26.70
2023-01-04T21:01:46.177Z,25.07
2023-01-04T21:04:17.595Z,28.80
2023-01-04T21:06:45.660Z,26.10
2023-01-04T21:09:13.770Z,26.40
2023-01-04T21:11:41.752Z,25.83
2023-01-04T21:14:11.820Z,26.40
2023-01-04T21:16:41.355Z,25.80
2023-01-04T21:19:09.687Z,30.07
2023-01-04T21:21:39.426Z,25.67
2023-01-04T21:24:08.115Z,25.80
2023-01-04T21:26:36.000Z,26.90
2023-01-04T21:29:04.081Z,28.33
2023-01-04T21:31:32.306Z,26.63
2023-01-04T21:34:00.620Z,27.33
2023-01-04T21:36:29.258Z,26.03
2023-01-04T21:39:00.164Z,27.13
2023-01-04T21:41:28.563Z,27.30
2023-01-04T21:43:58.846Z,26.10
2023-01-04T21:46:28.731Z,28.13
2023-01-04T21:49:01.645Z,26.60
2023-01-04T21:51:30.287Z,26.33
2023-01-04T21:54:01.626Z,28.13
2023-01-04T21:56:31.514Z,28.47
2023-01-04T21:58:59.784Z,28.33
2023-01-04T22:01:34.561Z,29.37
2023-01-04T22:04:03.867Z,28.10
2023-01-04T22:06:33.145Z,29.00
2023-01-04T22:09:02.537Z,32.03
2023-01-04T22:11:30.626Z,31.90
2023-01-04T22:13:58.815Z,32.70
2023-01-04T22:16:26.957Z,32.47
2023-01-04T22:18:55.065Z,33.70
2023-01-04T22:21:24.722Z,33.60
2023-01-04T22:23:53.263Z,33.90
2023-01-04T22:26:22.491Z,34.17
2023-01-04T22:28:50.510Z,34.57
2023-01-04T22:31:18.673Z,34.80
2023-01-04T22:33:46.765Z,37.10
2023-01-04T22:36:22.283Z,36.97
2023-01-04T22:38:53.275Z,38.10
2023-01-04T22:41:23.957Z,38.10
2023-01-04T22:43:56.715Z,39.00
2023-01-04T22:46:25.627Z,41.77
2023-01-04T22:48:53.948Z,40.80
2023-01-04T22:51:23.620Z,40.03
2023-01-04T22:53:55.192Z,42.17
2023-01-04T22:56:25.199Z,43.03
2023-01-04T22:58:55.454Z,39.10
2023-01-04T23:01:24.525Z,39.47
2023-01-04T23:03:52.907Z,40.77
2023-01-04T23:06:21.579Z,39.70
2023-01-04T23:08:55.683Z,43.00
2023-01-04T23:11:26.196Z,43.50
2023-01-04T23:13:54.332Z,41.23
2023-01-04T23:16:29.635Z,41.13
2023-01-04T23:19:00.004Z,41.70
2023-01-04T23:21:28.161Z,41.97
2023-01-04T23:23:56.285Z,39.90
2023-01-04T23:26:27.285Z,42.67
2023-01-04T23:28:55.736Z,43.73
2023-01-04T23:31:25.640Z,45.20
2023-01-04T23:33:55.305Z,45.90
2023-01-04T23:36:24.906Z,45.27
2023-01-04T23:38:54.906Z,44.90
2023-01-04T23:41:44.372Z,43.93
2023-01-04T23:44:19.117Z,43.00
2023-01-04T23:46:47.974Z,44.50
2023-01-04T23:49:16.023Z,45.43
2023-01-04T23:51:44.175Z,46.13
2023-01-04T23:54:12.663Z,45.17
2023-01-04T23:56:41.753Z,47.50
2023-01-04T23:59:10.076Z,46.37
